This is the latest recevied weather packets stored in our database for station/object W4NRG-1. If no packets are shown the sender has not sent any weather packets the latest 10 day(s).
| Time | Temp. | Humidity | Pressure | Rain* | Wind** | Luminosity | Snow |
|---|---|---|---|---|---|---|---|
| 1777826264 | 14.44° C | 39% | 1017.9 hPa | 0 mm | - | - | - |
| 1777825963 | 14.44° C | 39% | 1018 hPa | 0 mm | - | - | - |
| 1777825659 | - | - | - | 0 mm | - | - | - |
| 1777825357 | 13.89° C | 38% | 1018.1 hPa | 0 mm | - | - | - |
| 1777825053 | 13.89° C | 38% | 1017.9 hPa | 0 mm | - | - | - |
| 1777824749 | 14.44° C | 37% | 1018.2 hPa | 0 mm | - | - | - |
| 1777824446 | 13.89° C | 38% | 1018.2 hPa | 0 mm | - | - | - |
| 1777824142 | 13.89° C | 40% | 1018.2 hPa | 0 mm | - | - | - |
| 1777823839 | 13.89° C | 36% | 1018.3 hPa | 0 mm | - | - | - |
| 1777823537 | 13.89° C | 36% | 1018.5 hPa | 0 mm | - | - | - |
| 1777823233 | 13.89° C | 35% | 1018.5 hPa | 0 mm | - | - | - |
| 1777822931 | 13.33° C | 38% | 1018.3 hPa | 0 mm | - | - | - |
| 1777822629 | 13.33° C | 35% | 1018.2 hPa | 0 mm | - | - | - |
| 1777822326 | 13.33° C | 43% | 1018.4 hPa | 0 mm | - | - | - |
| 1777822024 | 13.33° C | 38% | 1018.6 hPa | 0 mm | - | - | - |
| 1777821722 | 12.78° C | 40% | 1018.4 hPa | 0 mm | - | - | - |
| 1777821419 | 12.78° C | 36% | 1018.5 hPa | 0 mm | - | - | - |
| 1777821115 | 12.78° C | 39% | 1018.6 hPa | 0 mm | - | - | - |
| 1777820812 | 12.78° C | 43% | 1018.6 hPa | 0 mm | - | - | - |
| 1777820509 | 12.78° C | 39% | 1018.3 hPa | 0 mm | - | - | - |
| 1777820206 | 12.78° C | 39% | 1018.4 hPa | 0 mm | - | - | - |
| 1777819903 | 12.78° C | 42% | 1018.4 hPa | 0 mm | - | - | - |
| 1777819600 | 12.22° C | 41% | 1018.2 hPa | 0 mm | - | - | - |
| 1777819298 | 12.22° C | 40% | 1018.2 hPa | 0 mm | - | - | - |
| 1777818994 | 12.22° C | 40% | 1018.2 hPa | 0 mm | - | - | - |
* Rain latest hour (hover to see other rain measurements)
** Current wind speed in m/s (hover to see current wind gust speed)